Time;durP1;ratioP1;P1;durP2;ratioP2;P2;SDS_P1;SDS_P2;PMS_P1;PMS_P2;Temp;Humidity;BMP_temperature;BMP_pressure;BME280_temperature;BME280_humidity;BME280_pressure;Samples;Min_cycle;Max_cycle;Signal;HPM_P1;HPM_P2
2022/12/23 00:01:07;;;;;;;23.87;19.70;;;;;;;;;;6254203;22;20473;-77
2022/12/23 00:03:38;;;;;;;23.23;20.03;;;;;;;;;;6279739;22;20389;-79
2022/12/23 00:06:07;;;;;;;22.77;18.10;;;;;;;;;;6279994;22;20200;-79
2022/12/23 00:08:37;;;;;;;24.83;20.40;;;;;;;;;;6252855;22;20475;-79
2022/12/23 00:11:09;;;;;;;22.50;17.90;;;;;;;;;;6253527;22;20448;-77
2022/12/23 00:16:21;;;;;;;22.67;18.90;;;;;;;;;;6280579;22;20476;-78
2022/12/23 00:18:51;;;;;;;26.83;20.57;;;;;;;;;;6253037;22;20389;-77
2022/12/23 00:21:19;;;;;;;24.03;19.77;;;;;;;;;;6251752;22;20388;-78
2022/12/23 00:23:48;;;;;;;28.93;21.50;;;;;;;;;;6251963;22;20378;-77
2022/12/23 00:26:27;;;;;;;24.80;19.80;;;;;;;;;;6253183;22;20380;-78
2022/12/23 00:28:55;;;;;;;24.37;19.27;;;;;;;;;;6254400;22;20397;-78
2022/12/23 00:31:23;;;;;;;23.53;19.70;;;;;;;;;;6252720;22;20726;-78
2022/12/23 00:33:53;;;;;;;22.47;19.30;;;;;;;;;;6278606;22;20911;-79
2022/12/23 00:36:26;;;;;;;26.87;20.33;;;;;;;;;;6251570;22;20361;-79
2022/12/23 00:44:25;;;;;;;24.33;18.63;;;;;;;;;;6302141;22;20411;-79
2022/12/23 00:46:53;;;;;;;22.07;18.63;;;;;;;;;;6275076;22;20381;-81
2022/12/23 00:52:24;;;;;;;23.40;18.13;;;;;;;;;;6272175;22;20409;-78
2022/12/23 00:54:52;;;;;;;23.27;18.33;;;;;;;;;;6271535;22;20370;-79
2022/12/23 00:57:19;;;;;;;24.40;19.30;;;;;;;;;;6263442;22;20381;-77
2022/12/23 00:59:45;;;;;;;25.80;19.90;;;;;;;;;;6248266;22;20381;-78
2022/12/23 01:07:43;;;;;;;22.27;18.50;;;;;;;;;;6284249;22;20341;-79
2022/12/23 01:10:11;;;;;;;26.10;19.20;;;;;;;;;;6261293;22;20385;-81
2022/12/23 01:12:36;;;;;;;23.60;19.70;;;;;;;;;;6261758;22;20431;-78
2022/12/23 01:15:04;;;;;;;22.03;18.90;;;;;;;;;;6261732;22;20758;-80
2022/12/23 01:17:33;;;;;;;21.43;16.70;;;;;;;;;;6255841;22;20214;-79
2022/12/23 01:20:03;;;;;;;20.90;17.17;;;;;;;;;;6258242;22;20390;-78
2022/12/23 01:22:29;;;;;;;22.53;18.33;;;;;;;;;;6285064;22;20376;-79
2022/12/23 01:24:57;;;;;;;20.97;18.20;;;;;;;;;;6260803;22;20374;-77
2022/12/23 01:27:22;;;;;;;23.70;18.70;;;;;;;;;;6259796;22;20155;-79
2022/12/23 01:29:50;;;;;;;18.53;16.50;;;;;;;;;;6262988;22;20461;-78
2022/12/23 01:32:18;;;;;;;21.50;18.20;;;;;;;;;;6287099;22;20143;-77
2022/12/23 01:34:46;;;;;;;21.03;18.13;;;;;;;;;;6281662;22;20419;-78
2022/12/23 01:37:14;;;;;;;24.10;19.20;;;;;;;;;;6280705;22;20394;-78
2022/12/23 01:39:42;;;;;;;24.07;18.57;;;;;;;;;;6281321;22;20392;-78
2022/12/23 01:45:02;;;;;;;26.20;19.93;;;;;;;;;;6281671;22;20665;-76
2022/12/23 01:47:42;;;;;;;27.43;22.10;;;;;;;;;;6255653;22;20380;-77
2022/12/23 01:50:11;;;;;;;30.93;23.27;;;;;;;;;;6255828;22;20397;-77
2022/12/23 01:53:02;;;;;;;34.53;25.30;;;;;;;;;;6258986;22;20424;-78
2022/12/23 01:55:29;;;;;;;33.97;26.10;;;;;;;;;;6239925;22;20381;-78
2022/12/23 01:58:01;;;;;;;35.63;26.00;;;;;;;;;;6259060;22;20377;-78
2022/12/23 02:09:15;;;;;;;38.60;28.47;;;;;;;;;;6276175;22;20448;-77
2022/12/23 02:11:35;;;;;;;36.60;27.60;;;;;;;;;;6278870;22;20735;-78
2022/12/23 02:17:08;;;;;;;41.30;28.50;;;;;;;;;;6277253;22;20403;-77
2022/12/23 02:19:52;;;;;;;37.27;26.43;;;;;;;;;;6277018;22;20852;-77
2022/12/23 02:22:58;;;;;;;42.90;29.00;;;;;;;;;;6248437;22;20377;-77
2022/12/23 02:25:23;;;;;;;40.83;28.10;;;;;;;;;;6126565;23;20725;-76
2022/12/23 02:28:10;;;;;;;35.97;26.97;;;;;;;;;;6152667;23;20438;-77
2022/12/23 02:30:44;;;;;;;36.27;26.20;;;;;;;;;;6214355;22;20169;-77
2022/12/23 02:33:18;;;;;;;38.40;27.80;;;;;;;;;;6277755;22;20393;-78
2022/12/23 02:35:58;;;;;;;38.50;27.90;;;;;;;;;;6248560;22;20431;-78
2022/12/23 02:38:28;;;;;;;42.07;28.10;;;;;;;;;;6247541;22;20424;-78
2022/12/23 02:41:05;;;;;;;39.40;28.70;;;;;;;;;;6246423;22;20871;-78
2022/12/23 02:43:47;;;;;;;40.23;27.17;;;;;;;;;;6247625;22;20373;-77
2022/12/23 02:46:27;;;;;;;37.63;27.67;;;;;;;;;;6273260;22;20837;-76
2022/12/23 02:48:59;;;;;;;43.03;28.53;;;;;;;;;;6246257;22;20468;-77
2022/12/23 02:51:27;;;;;;;39.40;27.27;;;;;;;;;;6273634;22;20350;-76
2022/12/23 02:53:58;;;;;;;40.77;28.63;;;;;;;;;;6274475;22;20420;-76
2022/12/23 02:56:29;;;;;;;41.27;28.77;;;;;;;;;;6247530;22;20403;-77
2022/12/23 02:59:03;;;;;;;42.47;29.03;;;;;;;;;;6246625;22;20401;-78
2022/12/23 03:01:32;;;;;;;35.30;26.57;;;;;;;;;;6246613;22;20350;-77
2022/12/23 03:03:58;;;;;;;38.47;28.00;;;;;;;;;;6241856;23;20405;-79
2022/12/23 03:06:35;;;;;;;39.13;28.07;;;;;;;;;;6242989;22;20367;-79
2022/12/23 03:09:06;;;;;;;43.40;30.07;;;;;;;;;;6243314;22;20173;-78
2022/12/23 03:11:49;;;;;;;39.00;26.43;;;;;;;;;;6244704;22;20817;-77
2022/12/23 03:14:23;;;;;;;38.37;27.17;;;;;;;;;;6243657;22;20485;-78
2022/12/23 03:17:02;;;;;;;36.33;26.03;;;;;;;;;;6245580;23;20384;-78
2022/12/23 03:19:41;;;;;;;36.33;26.60;;;;;;;;;;6242522;22;20397;-77
2022/12/23 03:22:29;;;;;;;39.33;25.90;;;;;;;;;;6242561;23;20368;-76
2022/12/23 03:25:15;;;;;;;35.50;24.40;;;;;;;;;;6243803;23;20445;-79
2022/12/23 03:27:45;;;;;;;36.33;25.63;;;;;;;;;;6243066;23;20366;-77
2022/12/23 03:30:17;;;;;;;38.47;25.20;;;;;;;;;;6245020;22;20806;-77
2022/12/23 03:32:45;;;;;;;35.13;24.20;;;;;;;;;;6246987;23;20440;-78
2022/12/23 03:35:12;;;;;;;35.83;25.60;;;;;;;;;;6247430;22;20362;-78
2022/12/23 03:37:40;;;;;;;33.80;23.87;;;;;;;;;;6246715;22;20359;-78
2022/12/23 03:40:11;;;;;;;34.47;23.10;;;;;;;;;;6243962;22;20392;-79
2022/12/23 03:42:40;;;;;;;35.00;25.27;;;;;;;;;;6244366;23;20377;-77
2022/12/23 03:45:13;;;;;;;35.57;25.33;;;;;;;;;;6243672;23;20412;-77
2022/12/23 03:47:44;;;;;;;36.40;26.50;;;;;;;;;;6245984;22;20425;-78
2022/12/23 03:50:10;;;;;;;35.73;25.03;;;;;;;;;;6245566;22;20389;-78
2022/12/23 03:52:42;;;;;;;40.03;26.67;;;;;;;;;;6245363;23;20433;-78
2022/12/23 03:55:11;;;;;;;38.17;26.40;;;;;;;;;;6245584;22;20477;-79
2022/12/23 03:57:43;;;;;;;40.30;25.80;;;;;;;;;;6244713;23;20374;-76
2022/12/23 04:00:12;;;;;;;36.83;26.37;;;;;;;;;;6243641;22;20438;-78
2022/12/23 04:02:58;;;;;;;39.77;26.33;;;;;;;;;;6249227;22;20461;-77
2022/12/23 04:05:28;;;;;;;37.50;26.70;;;;;;;;;;6248692;22;20357;-77
2022/12/23 04:07:57;;;;;;;41.87;27.60;;;;;;;;;;6248691;22;20380;-76
2022/12/23 04:10:26;;;;;;;37.67;25.27;;;;;;;;;;6275881;22;20468;-76
2022/12/23 04:12:51;;;;;;;43.73;28.97;;;;;;;;;;6276277;22;20421;-70
2022/12/23 04:15:21;;;;;;;46.50;29.63;;;;;;;;;;6272067;22;20718;-70
2022/12/23 04:17:47;;;;;;;45.07;28.90;;;;;;;;;;6301063;22;20146;-70
2022/12/23 04:20:12;;;;;;;39.40;27.10;;;;;;;;;;6301174;22;20858;-70
2022/12/23 04:22:38;;;;;;;41.10;29.10;;;;;;;;;;6270876;22;20193;-67
2022/12/23 04:25:04;;;;;;;42.33;29.23;;;;;;;;;;6266158;22;20151;-68
2022/12/23 04:27:29;;;;;;;41.73;28.07;;;;;;;;;;6269827;22;20905;-67
2022/12/23 04:29:54;;;;;;;45.20;27.80;;;;;;;;;;6270494;22;20153;-68
2022/12/23 04:32:19;;;;;;;44.23;28.90;;;;;;;;;;6270430;22;20181;-68
2022/12/23 04:34:45;;;;;;;39.47;27.63;;;;;;;;;;6269114;22;20166;-70
2022/12/23 04:37:10;;;;;;;41.73;28.03;;;;;;;;;;6272003;22;20589;-70
2022/12/23 04:39:35;;;;;;;44.37;28.30;;;;;;;;;;6269759;22;20482;-70
2022/12/23 04:42:00;;;;;;;41.90;27.63;;;;;;;;;;6270303;22;20203;-69
2022/12/23 04:44:26;;;;;;;41.20;26.60;;;;;;;;;;6268942;22;20636;-70
2022/12/23 04:46:51;;;;;;;41.37;26.07;;;;;;;;;;6265564;22;20150;-70
2022/12/23 04:49:16;;;;;;;43.43;26.43;;;;;;;;;;6270065;22;20153;-69
2022/12/23 04:51:41;;;;;;;39.77;26.57;;;;;;;;;;6271831;22;20220;-69
2022/12/23 04:54:07;;;;;;;40.43;27.10;;;;;;;;;;6269368;22;20178;-70
2022/12/23 04:56:32;;;;;;;36.27;25.77;;;;;;;;;;6271752;22;20152;-70
2022/12/23 04:59:00;;;;;;;37.40;25.17;;;;;;;;;;6268162;22;20145;-69
2022/12/23 05:01:26;;;;;;;37.23;25.23;;;;;;;;;;6270455;22;20401;-70
2022/12/23 05:03:51;;;;;;;36.67;24.33;;;;;;;;;;6269177;22;20515;-70
2022/12/23 05:06:16;;;;;;;36.53;24.50;;;;;;;;;;6267992;22;20204;-69
2022/12/23 05:08:41;;;;;;;38.23;24.97;;;;;;;;;;6271610;22;20154;-70
2022/12/23 05:11:07;;;;;;;35.67;23.90;;;;;;;;;;6270408;22;20181;-70
2022/12/23 05:13:32;;;;;;;34.93;23.53;;;;;;;;;;6270401;22;20252;-70
2022/12/23 05:15:57;;;;;;;32.90;21.67;;;;;;;;;;6244705;22;20139;-67
2022/12/23 05:18:22;;;;;;;32.33;21.00;;;;;;;;;;6271239;22;20139;-67
2022/12/23 05:20:48;;;;;;;35.20;22.83;;;;;;;;;;6272185;22;20634;-67
2022/12/23 05:23:13;;;;;;;35.10;22.67;;;;;;;;;;6270006;22;20171;-67
2022/12/23 05:25:39;;;;;;;27.90;19.60;;;;;;;;;;6271647;22;20143;-67
2022/12/23 05:28:05;;;;;;;32.80;22.10;;;;;;;;;;6271456;22;20151;-67
2022/12/23 05:30:30;;;;;;;33.73;21.80;;;;;;;;;;6268494;22;20229;-67
2022/12/23 05:32:56;;;;;;;32.40;21.33;;;;;;;;;;6269821;22;20444;-67
2022/12/23 05:35:22;;;;;;;36.03;23.10;;;;;;;;;;6268766;22;20142;-67
2022/12/23 05:37:47;;;;;;;27.50;20.03;;;;;;;;;;6269192;22;20217;-67
2022/12/23 05:40:13;;;;;;;29.43;20.43;;;;;;;;;;6269444;22;20393;-67
2022/12/23 05:42:38;;;;;;;29.50;19.87;;;;;;;;;;6267740;22;20143;-67
2022/12/23 05:45:03;;;;;;;32.07;20.63;;;;;;;;;;6269150;22;20151;-67
2022/12/23 05:47:28;;;;;;;29.97;20.00;;;;;;;;;;6268619;22;20161;-67
2022/12/23 05:49:54;;;;;;;28.30;18.10;;;;;;;;;;6268876;22;20613;-67
2022/12/23 05:52:19;;;;;;;28.60;18.60;;;;;;;;;;6268279;22;20178;-67
2022/12/23 05:54:44;;;;;;;26.30;18.03;;;;;;;;;;6241554;22;20667;-67
2022/12/23 05:57:09;;;;;;;28.40;18.20;;;;;;;;;;6269741;22;20142;-67
2022/12/23 05:59:35;;;;;;;25.80;17.93;;;;;;;;;;6269564;22;20226;-67
2022/12/23 06:02:00;;;;;;;26.50;17.40;;;;;;;;;;6242780;22;20221;-67
2022/12/23 06:04:25;;;;;;;26.80;17.13;;;;;;;;;;6268544;22;20219;-67
2022/12/23 06:06:50;;;;;;;26.43;17.10;;;;;;;;;;6266265;22;20147;-67
2022/12/23 06:09:16;;;;;;;25.00;16.83;;;;;;;;;;6269799;22;20146;-67
2022/12/23 06:11:41;;;;;;;28.00;17.93;;;;;;;;;;6267252;22;20561;-67
2022/12/23 06:14:06;;;;;;;25.50;17.73;;;;;;;;;;6269310;22;20182;-67
2022/12/23 06:16:32;;;;;;;25.47;16.60;;;;;;;;;;6267199;22;20213;-67
2022/12/23 06:18:57;;;;;;;27.53;17.70;;;;;;;;;;6265397;22;20589;-67
2022/12/23 06:21:24;;;;;;;28.60;17.30;;;;;;;;;;6267803;22;20213;-67
2022/12/23 06:23:49;;;;;;;27.60;18.50;;;;;;;;;;6268417;22;20167;-67
2022/12/23 06:26:15;;;;;;;25.60;17.83;;;;;;;;;;6268668;22;20852;-67
2022/12/23 06:28:40;;;;;;;25.80;16.30;;;;;;;;;;6268604;22;20203;-67
2022/12/23 06:31:05;;;;;;;29.10;18.33;;;;;;;;;;6272208;22;20150;-70
2022/12/23 06:33:30;;;;;;;23.93;15.77;;;;;;;;;;6267775;22;20178;-69
2022/12/23 06:35:56;;;;;;;23.40;15.73;;;;;;;;;;6270321;22;20143;-69
2022/12/23 06:38:22;;;;;;;24.70;15.73;;;;;;;;;;6239972;22;20498;-67
2022/12/23 06:40:48;;;;;;;27.20;16.57;;;;;;;;;;6268162;22;20415;-70
2022/12/23 06:43:13;;;;;;;22.80;16.00;;;;;;;;;;6267813;22;20620;-70
2022/12/23 06:45:39;;;;;;;23.83;16.10;;;;;;;;;;6269136;22;20173;-70
2022/12/23 06:48:04;;;;;;;22.13;15.27;;;;;;;;;;6266536;22;20155;-70
2022/12/23 06:50:30;;;;;;;23.63;15.77;;;;;;;;;;6269340;22;20185;-68
2022/12/23 06:52:55;;;;;;;26.20;15.83;;;;;;;;;;6268865;22;20215;-68
2022/12/23 06:55:20;;;;;;;28.27;15.30;;;;;;;;;;6263480;22;20145;-68
2022/12/23 06:57:45;;;;;;;29.40;18.60;;;;;;;;;;6268408;22;20532;-67
2022/12/23 07:00:11;;;;;;;24.33;16.30;;;;;;;;;;6270976;22;20147;-67
2022/12/23 07:02:36;;;;;;;22.23;15.27;;;;;;;;;;6267602;22;20276;-68
2022/12/23 07:05:02;;;;;;;26.00;16.10;;;;;;;;;;6270486;22;20606;-67
2022/12/23 07:07:27;;;;;;;22.50;13.80;;;;;;;;;;6270816;22;20176;-67
2022/12/23 07:09:52;;;;;;;26.90;17.30;;;;;;;;;;6270395;22;20151;-68
2022/12/23 07:12:18;;;;;;;28.20;20.20;;;;;;;;;;6270750;22;20616;-67
2022/12/23 07:14:43;;;;;;;28.30;19.47;;;;;;;;;;6271357;22;20197;-67
2022/12/23 07:17:08;;;;;;;23.10;15.80;;;;;;;;;;6242344;22;20174;-68
2022/12/23 07:19:34;;;;;;;21.07;15.13;;;;;;;;;;6240482;22;20228;-68
2022/12/23 07:21:59;;;;;;;22.83;14.57;;;;;;;;;;6269615;22;20146;-67
2022/12/23 07:24:24;;;;;;;21.23;14.27;;;;;;;;;;6268859;22;20175;-67
2022/12/23 07:26:50;;;;;;;22.63;14.87;;;;;;;;;;6271316;22;20472;-67
2022/12/23 07:29:15;;;;;;;20.17;13.63;;;;;;;;;;6268033;22;20217;-67
2022/12/23 07:31:40;;;;;;;23.07;14.93;;;;;;;;;;6265568;22;20146;-67
2022/12/23 07:34:05;;;;;;;21.77;15.13;;;;;;;;;;6267145;22;20221;-67
2022/12/23 07:36:31;;;;;;;20.40;14.20;;;;;;;;;;6267116;22;20138;-67
2022/12/23 07:38:56;;;;;;;20.43;13.70;;;;;;;;;;6269361;22;20147;-68
2022/12/23 07:41:22;;;;;;;19.47;13.30;;;;;;;;;;6242282;22;20147;-67
2022/12/23 07:43:47;;;;;;;21.07;14.40;;;;;;;;;;6269086;22;20573;-67
2022/12/23 07:46:12;;;;;;;23.90;14.50;;;;;;;;;;6268924;22;20147;-67
2022/12/23 07:48:39;;;;;;;21.53;13.57;;;;;;;;;;6265966;22;20147;-67
2022/12/23 07:51:04;;;;;;;18.70;13.27;;;;;;;;;;6242030;22;20158;-67
2022/12/23 07:53:29;;;;;;;19.73;12.50;;;;;;;;;;6266901;22;20469;-69
2022/12/23 07:55:55;;;;;;;20.53;14.40;;;;;;;;;;6268058;22;20146;-68
2022/12/23 07:58:20;;;;;;;19.70;12.90;;;;;;;;;;6269307;22;20135;-68
2022/12/23 08:00:45;;;;;;;19.20;12.87;;;;;;;;;;6262536;22;20222;-69
2022/12/23 08:03:11;;;;;;;17.47;11.87;;;;;;;;;;6264026;22;20545;-68
2022/12/23 08:05:36;;;;;;;21.33;12.53;;;;;;;;;;6263712;22;20252;-68
2022/12/23 08:08:01;;;;;;;19.97;12.93;;;;;;;;;;6237887;22;20184;-68
2022/12/23 08:10:27;;;;;;;20.10;13.20;;;;;;;;;;6238142;22;20233;-69
2022/12/23 08:12:52;;;;;;;23.20;12.43;;;;;;;;;;6258774;22;20178;-68
2022/12/23 08:15:18;;;;;;;21.80;12.83;;;;;;;;;;6264115;22;20477;-68
2022/12/23 08:17:43;;;;;;;20.80;12.50;;;;;;;;;;6265309;22;20392;-68
2022/12/23 08:20:08;;;;;;;19.77;13.27;;;;;;;;;;6266803;22;20139;-68
2022/12/23 08:22:33;;;;;;;18.43;11.50;;;;;;;;;;6262994;22;20469;-67
2022/12/23 08:24:59;;;;;;;22.37;12.87;;;;;;;;;;6267084;22;20585;-68
2022/12/23 08:27:24;;;;;;;22.67;13.90;;;;;;;;;;6232499;22;20159;-67
2022/12/23 08:29:49;;;;;;;18.47;12.37;;;;;;;;;;6241275;22;20362;-67
2022/12/23 08:32:15;;;;;;;19.23;12.20;;;;;;;;;;6244102;22;20215;-69
2022/12/23 08:34:40;;;;;;;19.67;13.30;;;;;;;;;;6268644;22;20242;-69
2022/12/23 08:37:05;;;;;;;20.17;13.17;;;;;;;;;;6269354;22;20139;-69
2022/12/23 08:39:31;;;;;;;22.80;14.23;;;;;;;;;;6271952;22;20138;-68
2022/12/23 08:41:56;;;;;;;20.07;13.20;;;;;;;;;;6270687;22;20142;-68
2022/12/23 08:44:21;;;;;;;20.33;12.73;;;;;;;;;;6242862;22;20485;-68
2022/12/23 08:46:47;;;;;;;20.87;12.97;;;;;;;;;;6241205;22;20150;-68
2022/12/23 08:49:15;;;;;;;19.97;12.80;;;;;;;;;;6270086;22;20217;-69
2022/12/23 08:51:41;;;;;;;19.90;11.80;;;;;;;;;;6242010;22;20553;-68
2022/12/23 08:54:06;;;;;;;22.90;13.10;;;;;;;;;;6271967;22;20761;-68
2022/12/23 08:56:32;;;;;;;17.93;12.23;;;;;;;;;;6264162;22;20366;-68
2022/12/23 08:58:58;;;;;;;18.47;11.80;;;;;;;;;;6243299;22;20154;-68
2022/12/23 09:01:24;;;;;;;16.00;11.77;;;;;;;;;;6269408;22;20739;-69
2022/12/23 09:03:50;;;;;;;18.00;11.20;;;;;;;;;;6270738;22;20167;-69
2022/12/23 09:06:17;;;;;;;17.43;11.60;;;;;;;;;;6267699;22;20397;-69
2022/12/23 09:08:42;;;;;;;17.53;11.57;;;;;;;;;;6239835;22;20518;-69
2022/12/23 09:11:08;;;;;;;19.33;11.83;;;;;;;;;;6269934;22;20369;-69
2022/12/23 09:13:34;;;;;;;18.17;10.90;;;;;;;;;;6271441;22;20257;-69
2022/12/23 09:16:02;;;;;;;16.70;11.23;;;;;;;;;;6268003;22;20401;-69
2022/12/23 09:18:27;;;;;;;16.63;12.00;;;;;;;;;;6238760;22;20147;-70
2022/12/23 09:20:59;;;;;;;19.83;12.10;;;;;;;;;;6270810;22;21141;-69
2022/12/23 09:23:24;;;;;;;17.57;11.63;;;;;;;;;;6269360;22;20242;-69
2022/12/23 09:25:50;;;;;;;17.20;11.90;;;;;;;;;;6265574;22;20396;-69
2022/12/23 09:28:15;;;;;;;19.73;13.07;;;;;;;;;;6271160;22;20150;-69
2022/12/23 09:30:40;;;;;;;18.63;14.40;;;;;;;;;;6268462;22;20146;-69
2022/12/23 09:33:05;;;;;;;20.60;13.47;;;;;;;;;;6271190;22;20202;-69
2022/12/23 09:35:32;;;;;;;19.10;12.13;;;;;;;;;;6258605;22;20200;-70
2022/12/23 09:37:57;;;;;;;15.27;10.33;;;;;;;;;;6266043;22;20181;-69
2022/12/23 09:40:22;;;;;;;16.33;10.30;;;;;;;;;;6269602;22;20365;-69
2022/12/23 09:43:06;;;;;;;18.57;12.30;;;;;;;;;;6268003;22;20177;-69
2022/12/23 09:45:49;;;;;;;18.97;10.90;;;;;;;;;;6267413;22;20149;-68
2022/12/23 09:48:20;;;;;;;12.90;9.37;;;;;;;;;;6267284;22;20366;-68
2022/12/23 09:50:45;;;;;;;15.67;9.63;;;;;;;;;;6241367;22;20377;-68
2022/12/23 09:53:16;;;;;;;14.23;10.07;;;;;;;;;;6233699;22;20442;-67
2022/12/23 09:55:49;;;;;;;13.77;10.17;;;;;;;;;;6243367;22;20604;-68
2022/12/23 09:58:27;;;;;;;16.77;11.40;;;;;;;;;;6267943;22;20358;-68
2022/12/23 10:01:01;;;;;;;15.40;10.77;;;;;;;;;;6239273;22;20764;-67
2022/12/23 10:03:31;;;;;;;17.27;10.87;;;;;;;;;;6242646;22;20874;-67
2022/12/23 10:06:20;;;;;;;14.33;9.40;;;;;;;;;;6270276;22;20365;-68
2022/12/23 10:08:46;;;;;;;18.57;12.10;;;;;;;;;;6267905;22;20369;-69
2022/12/23 10:11:11;;;;;;;13.60;9.60;;;;;;;;;;6242853;22;20408;-68
2022/12/23 10:13:38;;;;;;;19.83;12.10;;;;;;;;;;6235172;22;20918;-68
2022/12/23 10:16:08;;;;;;;17.77;10.37;;;;;;;;;;6249041;22;20257;-82
2022/12/23 10:18:40;;;;;;;14.30;10.40;;;;;;;;;;6256607;23;20375;-82
2022/12/23 10:21:09;;;;;;;17.10;10.70;;;;;;;;;;6258857;22;20385;-81
2022/12/23 10:23:41;;;;;;;14.87;9.27;;;;;;;;;;6257991;23;20400;-82
2022/12/23 10:26:13;;;;;;;14.00;9.10;;;;;;;;;;6232532;23;20395;-78
2022/12/23 10:28:38;;;;;;;15.87;9.70;;;;;;;;;;6235663;22;20367;-83
2022/12/23 10:31:11;;;;;;;13.20;9.20;;;;;;;;;;6234200;23;20367;-86
2022/12/23 10:33:42;;;;;;;15.00;9.63;;;;;;;;;;6235146;23;20171;-85
2022/12/23 10:36:08;;;;;;;15.97;9.50;;;;;;;;;;6231148;23;20394;-86
2022/12/23 10:38:33;;;;;;;16.77;11.10;;;;;;;;;;6227089;23;20351;-84
2022/12/23 10:41:19;;;;;;;19.50;12.07;;;;;;;;;;6227098;23;20143;-84
2022/12/23 10:44:10;;;;;;;16.80;10.87;;;;;;;;;;6229312;23;20140;-85
2022/12/23 10:46:49;;;;;;;14.13;10.50;;;;;;;;;;6233536;23;20366;-84
2022/12/23 10:49:23;;;;;;;14.00;10.17;;;;;;;;;;6232277;23;20430;-83
2022/12/23 10:52:00;;;;;;;14.30;10.93;;;;;;;;;;6233378;23;20380;-84
2022/12/23 10:54:29;;;;;;;15.47;11.07;;;;;;;;;;6232960;23;20438;-84
2022/12/23 10:56:54;;;;;;;17.80;11.73;;;;;;;;;;6234165;23;20413;-84
2022/12/23 10:59:26;;;;;;;18.10;12.60;;;;;;;;;;6231815;23;20367;-83
2022/12/23 11:01:55;;;;;;;24.13;15.97;;;;;;;;;;6231403;23;20140;-83
2022/12/23 11:04:24;;;;;;;21.77;14.47;;;;;;;;;;6228693;23;20382;-83
2022/12/23 11:06:51;;;;;;;24.17;15.13;;;;;;;;;;6231547;23;20375;-83
2022/12/23 11:09:22;;;;;;;21.90;15.03;;;;;;;;;;6230569;23;20399;-83
2022/12/23 11:11:51;;;;;;;17.50;13.33;;;;;;;;;;6225569;23;20375;-83
2022/12/23 11:14:28;;;;;;;16.90;13.20;;;;;;;;;;6232784;23;20434;-83
2022/12/23 11:16:53;;;;;;;20.87;14.17;;;;;;;;;;6232525;23;20688;-83
2022/12/23 11:19:19;;;;;;;18.93;13.70;;;;;;;;;;6229498;23;20379;-83
2022/12/23 11:22:02;;;;;;;20.43;13.60;;;;;;;;;;6233752;23;20168;-83
2022/12/23 11:24:31;;;;;;;22.40;14.43;;;;;;;;;;6232468;23;20144;-83
2022/12/23 11:27:05;;;;;;;18.50;13.00;;;;;;;;;;6231028;23;20383;-82
2022/12/23 11:29:32;;;;;;;15.57;11.43;;;;;;;;;;6229723;23;20403;-83
2022/12/23 11:31:57;;;;;;;16.37;12.47;;;;;;;;;;6232170;23;20386;-83
2022/12/23 11:34:27;;;;;;;16.60;11.80;;;;;;;;;;6232724;23;20478;-83
2022/12/23 11:36:59;;;;;;;17.30;11.60;;;;;;;;;;6233136;23;20154;-83
2022/12/23 11:39:32;;;;;;;17.10;10.87;;;;;;;;;;6233510;23;20362;-83
2022/12/23 11:42:12;;;;;;;16.03;10.30;;;;;;;;;;6226254;23;20846;-81
2022/12/23 11:44:46;;;;;;;15.13;11.00;;;;;;;;;;6228861;23;20395;-82
2022/12/23 11:47:21;;;;;;;15.87;10.50;;;;;;;;;;6232210;23;20362;-81
2022/12/23 11:49:48;;;;;;;17.20;11.70;;;;;;;;;;6230522;23;20378;-82
2022/12/23 11:52:16;;;;;;;14.87;10.80;;;;;;;;;;6231853;23;20378;-82
2022/12/23 11:54:48;;;;;;;14.30;11.20;;;;;;;;;;6230345;23;20427;-82
2022/12/23 11:57:16;;;;;;;15.30;10.17;;;;;;;;;;6232984;23;20423;-83
2022/12/23 11:59:43;;;;;;;17.90;12.50;;;;;;;;;;6226361;23;20667;-77
2022/12/23 12:02:13;;;;;;;18.63;12.80;;;;;;;;;;6217803;23;20374;-76
2022/12/23 12:04:39;;;;;;;15.80;11.20;;;;;;;;;;6217694;23;20393;-77
2022/12/23 12:07:05;;;;;;;16.80;11.07;;;;;;;;;;6217619;23;20708;-77
2022/12/23 12:09:31;;;;;;;18.83;12.23;;;;;;;;;;6215273;23;20478;-77
2022/12/23 12:12:04;;;;;;;15.43;12.17;;;;;;;;;;6217693;23;20203;-77
2022/12/23 12:14:41;;;;;;;20.47;12.67;;;;;;;;;;6211330;23;20187;-79
2022/12/23 12:17:14;;;;;;;16.20;11.20;;;;;;;;;;6240911;23;20457;-79
2022/12/23 12:19:48;;;;;;;18.27;13.17;;;;;;;;;;6240439;22;20386;-79
2022/12/23 12:22:23;;;;;;;17.03;13.00;;;;;;;;;;6235880;22;20343;-77
2022/12/23 12:24:51;;;;;;;20.87;13.70;;;;;;;;;;6233634;23;20394;-78
2022/12/23 12:27:18;;;;;;;19.60;13.27;;;;;;;;;;6243360;22;20358;-78
2022/12/23 12:29:56;;;;;;;18.13;12.87;;;;;;;;;;6242136;22;20719;-79
2022/12/23 12:32:32;;;;;;;20.83;13.47;;;;;;;;;;6242251;22;20382;-78
2022/12/23 12:35:03;;;;;;;16.47;12.30;;;;;;;;;;6242262;22;20414;-78
2022/12/23 12:37:34;;;;;;;15.07;11.10;;;;;;;;;;6242145;22;20381;-78
2022/12/23 12:40:02;;;;;;;17.03;11.10;;;;;;;;;;6253201;23;20829;-81
2022/12/23 12:42:34;;;;;;;14.97;11.13;;;;;;;;;;6249495;22;20374;-80
2022/12/23 12:45:05;;;;;;;15.90;12.10;;;;;;;;;;6247158;22;20420;-78
2022/12/23 12:47:38;;;;;;;37.70;24.93;;;;;;;;;;6241635;23;20759;-78
2022/12/23 12:50:15;;;;;;;42.60;28.60;;;;;;;;;;6240378;22;20405;-79
2022/12/23 12:52:41;;;;;;;37.57;28.17;;;;;;;;;;6251012;22;20356;-83
2022/12/23 12:55:12;;;;;;;32.53;21.67;;;;;;;;;;6256298;22;20473;-83
2022/12/23 12:57:38;;;;;;;17.93;13.53;;;;;;;;;;6249378;23;20366;-82
2022/12/23 13:00:09;;;;;;;19.03;13.13;;;;;;;;;;6252816;22;20362;-78
2022/12/23 13:02:53;;;;;;;18.43;13.00;;;;;;;;;;6256051;22;20430;-81
2022/12/23 13:05:28;;;;;;;20.43;14.30;;;;;;;;;;6259146;22;20457;-81
2022/12/23 13:08:17;;;;;;;20.77;14.20;;;;;;;;;;6261316;23;20361;-81
2022/12/23 13:10:55;;;;;;;20.33;13.67;;;;;;;;;;6260632;22;20791;-81
2022/12/23 13:13:40;;;;;;;17.30;12.90;;;;;;;;;;6256268;23;20409;-81
2022/12/23 13:16:24;;;;;;;22.23;14.40;;;;;;;;;;6256851;22;20420;-81
2022/12/23 13:18:52;;;;;;;20.97;14.90;;;;;;;;;;6257627;23;20837;-82
2022/12/23 13:21:36;;;;;;;21.80;14.57;;;;;;;;;;6255873;23;20366;-81
2022/12/23 13:24:01;;;;;;;25.40;15.77;;;;;;;;;;6261022;22;20374;-83
2022/12/23 13:26:30;;;;;;;21.70;14.87;;;;;;;;;;6247175;22;20452;-83
2022/12/23 13:29:14;;;;;;;26.77;17.20;;;;;;;;;;6259830;22;20163;-82
2022/12/23 13:31:39;;;;;;;25.00;15.93;;;;;;;;;;6260757;23;20358;-83
2022/12/23 13:34:23;;;;;;;21.63;15.40;;;;;;;;;;6260902;23;20432;-82
2022/12/23 13:36:49;;;;;;;20.53;14.80;;;;;;;;;;6262729;23;20150;-82
2022/12/23 13:39:20;;;;;;;21.47;15.00;;;;;;;;;;6262022;23;20362;-82
2022/12/23 13:41:48;;;;;;;21.43;16.37;;;;;;;;;;6257705;23;20147;-84
2022/12/23 13:44:14;;;;;;;21.27;15.03;;;;;;;;;;6242249;22;20378;-78
2022/12/23 13:46:39;;;;;;;21.30;14.70;;;;;;;;;;6245166;22;20427;-80
2022/12/23 13:49:09;;;;;;;22.27;15.43;;;;;;;;;;6252441;23;20158;-81
2022/12/23 13:51:34;;;;;;;23.80;16.17;;;;;;;;;;6241953;22;20597;-77
2022/12/23 13:54:10;;;;;;;21.70;15.30;;;;;;;;;;6241519;23;20409;-76
2022/12/23 13:56:45;;;;;;;17.97;13.00;;;;;;;;;;6237667;23;20135;-76
2022/12/23 13:59:11;;;;;;;18.10;13.13;;;;;;;;;;6237390;22;20726;-76
2022/12/23 14:01:39;;;;;;;20.73;13.67;;;;;;;;;;6241075;22;20825;-76
2022/12/23 14:04:23;;;;;;;20.90;14.93;;;;;;;;;;6238830;23;20436;-79
2022/12/23 14:06:49;;;;;;;18.57;13.70;;;;;;;;;;6236352;23;20378;-77
2022/12/23 14:09:15;;;;;;;19.83;13.83;;;;;;;;;;6240593;23;20508;-79
2022/12/23 14:11:41;;;;;;;17.57;13.23;;;;;;;;;;6239483;22;20182;-78
2022/12/23 14:14:16;;;;;;;20.00;12.50;;;;;;;;;;6243792;22;20410;-80
2022/12/23 14:16:50;;;;;;;19.13;12.50;;;;;;;;;;6246744;22;20435;-79
2022/12/23 14:19:16;;;;;;;18.30;12.50;;;;;;;;;;6250250;23;20381;-80
2022/12/23 14:21:53;;;;;;;18.67;13.13;;;;;;;;;;6252225;23;20382;-80
2022/12/23 14:24:38;;;;;;;18.00;13.60;;;;;;;;;;6255568;22;20696;-82
2022/12/23 14:27:21;;;;;;;17.70;12.10;;;;;;;;;;6254493;23;20401;-82
2022/12/23 14:29:53;;;;;;;18.07;14.00;;;;;;;;;;6262715;23;20374;-82
2022/12/23 14:32:19;;;;;;;22.07;14.90;;;;;;;;;;6254918;23;20362;-82
2022/12/23 14:35:03;;;;;;;19.90;14.20;;;;;;;;;;6260623;22;20731;-83
2022/12/23 14:37:30;;;;;;;19.77;12.97;;;;;;;;;;6262038;22;20123;-84
2022/12/23 14:39:58;;;;;;;17.30;13.00;;;;;;;;;;6261001;22;20370;-83
2022/12/23 14:42:34;;;;;;;18.10;13.40;;;;;;;;;;6251375;23;20428;-84
2022/12/23 14:45:18;;;;;;;22.87;13.93;;;;;;;;;;6255997;22;20390;-81
2022/12/23 14:47:45;;;;;;;22.70;14.57;;;;;;;;;;6256332;23;20366;-81
2022/12/23 14:50:29;;;;;;;21.33;13.70;;;;;;;;;;6260444;22;20369;-81
2022/12/23 14:52:58;;;;;;;18.70;12.90;;;;;;;;;;6259616;23;20418;-81
2022/12/23 14:55:28;;;;;;;21.23;13.80;;;;;;;;;;6260751;22;20389;-81
2022/12/23 14:57:57;;;;;;;22.00;12.77;;;;;;;;;;6258786;23;20389;-82
2022/12/23 15:00:23;;;;;;;18.70;13.07;;;;;;;;;;6260076;23;20904;-81
2022/12/23 15:02:52;;;;;;;20.40;12.30;;;;;;;;;;6260974;22;20385;-81